Time;durP1;ratioP1;P1;durP2;ratioP2;P2;SDS_P1;SDS_P2;PMS_P1;PMS_P2;Temp;Humidity;BMP_temperature;BMP_pressure;BME280_temperature;BME280_humidity;BME280_pressure;Samples;Min_cycle;Max_cycle;Signal;HPM_P1;HPM_P2
2023/09/01 00:01:34;;;;;;;17.58;13.05;;;15.80;99.90;;;;;;5091341;28;20384;-78
2023/09/01 00:03:59;;;;;;;19.70;13.57;;;15.80;99.90;;;;;;5092181;28;20434;-78
2023/09/01 00:06:25;;;;;;;21.98;14.18;;;15.80;99.90;;;;;;5092005;28;20462;-79
2023/09/01 00:08:51;;;;;;;18.13;12.45;;;15.70;99.90;;;;;;5090792;28;20024;-78
2023/09/01 00:11:17;;;;;;;25.17;16.15;;;15.70;99.90;;;;;;5091443;28;20057;-78
2023/09/01 00:13:42;;;;;;;21.27;14.60;;;15.70;99.90;;;;;;5091136;28;20044;-78
2023/09/01 00:16:08;;;;;;;16.50;12.00;;;15.80;99.90;;;;;;5073096;28;20030;-78
2023/09/01 00:18:34;;;;;;;16.90;12.23;;;15.70;99.90;;;;;;5091493;28;20040;-79
2023/09/01 00:21:01;;;;;;;23.63;14.85;;;15.70;99.90;;;;;;5090769;28;20103;-79
2023/09/01 00:23:27;;;;;;;20.60;13.68;;;15.80;99.90;;;;;;5091302;28;20035;-79
2023/09/01 00:25:58;;;;;;;18.77;13.38;;;15.80;99.90;;;;;;5090849;28;20022;-79
2023/09/01 00:28:24;;;;;;;17.55;12.40;;;15.70;99.90;;;;;;5091310;28;20047;-79
2023/09/01 00:30:55;;;;;;;24.42;15.52;;;15.70;99.90;;;;;;5090663;28;20031;-78
2023/09/01 00:33:22;;;;;;;26.77;16.58;;;15.80;99.90;;;;;;5091403;28;20483;-78
2023/09/01 00:35:50;;;;;;;22.75;13.63;;;15.70;99.90;;;;;;5089861;28;20115;-78
2023/09/01 00:38:16;;;;;;;20.50;13.63;;;15.70;99.90;;;;;;5091131;28;20352;-78
2023/09/01 00:40:42;;;;;;;19.00;12.60;;;15.70;99.90;;;;;;5090532;28;20020;-78
2023/09/01 00:43:07;;;;;;;22.88;14.20;;;15.70;99.90;;;;;;5091229;28;20020;-78
2023/09/01 00:45:36;;;;;;;21.35;13.77;;;15.70;99.90;;;;;;5090705;28;20516;-78
2023/09/01 00:48:02;;;;;;;21.38;13.35;;;15.70;99.90;;;;;;5090951;28;20099;-78
2023/09/01 00:50:28;;;;;;;25.67;14.98;;;15.80;99.90;;;;;;5091067;28;20030;-78
2023/09/01 00:52:54;;;;;;;22.90;14.68;;;15.70;99.90;;;;;;5090456;28;20356;-78
2023/09/01 00:55:20;;;;;;;22.63;13.57;;;15.70;99.90;;;;;;5090856;28;20028;-79
2023/09/01 00:57:46;;;;;;;25.38;15.05;;;15.70;99.90;;;;;;5089933;28;20423;-78
2023/09/01 01:00:12;;;;;;;22.80;14.48;;;15.70;99.90;;;;;;5091106;28;20032;-77
2023/09/01 01:02:38;;;;;;;22.48;13.20;;;15.70;99.90;;;;;;5090964;28;20382;-78
2023/09/01 01:05:15;;;;;;;29.60;15.95;;;15.70;99.90;;;;;;5091178;28;20078;-79
2023/09/01 01:08:09;;;;;;;29.27;17.25;;;15.70;99.90;;;;;;5091053;28;20115;-78
2023/09/01 01:10:43;;;;;;;37.50;18.23;;;15.70;99.90;;;;;;5091183;28;20028;-78
2023/09/01 01:13:13;;;;;;;34.20;17.38;;;15.70;99.90;;;;;;5091224;28;20040;-79
2023/09/01 01:15:39;;;;;;;32.45;16.58;;;15.70;99.90;;;;;;5090941;28;20028;-79
2023/09/01 01:18:10;;;;;;;36.50;18.92;;;15.70;99.90;;;;;;5090278;28;20063;-79
2023/09/01 01:20:38;;;;;;;38.50;19.48;;;15.70;99.90;;;;;;5091081;28;20028;-78
2023/09/01 01:23:16;;;;;;;40.72;20.83;;;15.70;99.90;;;;;;5090271;28;20036;-78
2023/09/01 01:25:46;;;;;;;38.97;18.42;;;15.70;99.90;;;;;;5090426;28;20163;-79
2023/09/01 01:28:12;;;;;;;30.83;16.98;;;15.80;99.90;;;;;;5090662;28;20116;-79
2023/09/01 01:30:38;;;;;;;31.75;17.20;;;15.70;99.90;;;;;;5091123;28;20066;-79
2023/09/01 01:33:30;;;;;;;35.35;17.15;;;15.70;99.90;;;;;;5090191;28;20059;-78
2023/09/01 01:36:13;;;;;;;37.65;17.65;;;15.80;99.90;;;;;;5089827;28;20039;-78
2023/09/01 01:38:42;;;;;;;38.85;19.38;;;15.80;99.90;;;;;;5090843;28;20052;-78
2023/09/01 01:41:20;;;;;;;35.00;18.17;;;15.80;99.90;;;;;;5090554;28;20021;-79
2023/09/01 01:43:49;;;;;;;30.38;16.77;;;15.80;99.90;;;;;;5090258;28;20056;-78
2023/09/01 01:46:16;;;;;;;35.22;17.10;;;15.80;99.90;;;;;;5091195;28;20116;-78
2023/09/01 01:48:41;;;;;;;40.10;20.23;;;15.80;99.90;;;;;;5093906;28;20031;-77
2023/09/01 01:51:07;;;;;;;37.03;18.83;;;15.70;99.90;;;;;;5093566;28;20028;-77
2023/09/01 01:53:35;;;;;;;30.88;17.05;;;15.70;99.90;;;;;;5075680;28;20047;-78
2023/09/01 01:56:02;;;;;;;33.38;18.23;;;15.80;99.90;;;;;;5093570;28;20437;-78
2023/09/01 01:58:28;;;;;;;29.58;16.67;;;15.70;99.90;;;;;;5094148;28;20066;-79
2023/09/01 02:00:54;;;;;;;35.72;18.33;;;15.70;99.90;;;;;;5093532;28;20058;-78
2023/09/01 02:03:19;;;;;;;31.83;17.00;;;15.70;99.90;;;;;;5094160;28;20028;-78
2023/09/01 02:05:45;;;;;;;33.15;17.77;;;15.70;99.90;;;;;;5093556;28;20426;-79
2023/09/01 02:08:11;;;;;;;32.42;17.48;;;15.70;99.90;;;;;;5093651;28;20024;-79
2023/09/01 02:10:37;;;;;;;44.08;20.25;;;15.70;99.90;;;;;;5093539;28;20024;-79
2023/09/01 02:13:04;;;;;;;43.33;18.85;;;15.60;99.90;;;;;;5093269;28;20035;-77
2023/09/01 02:15:30;;;;;;;45.60;21.13;;;15.60;99.90;;;;;;5094912;28;20036;-78
2023/09/01 02:17:57;;;;;;;37.67;18.67;;;15.60;99.90;;;;;;5093918;28;20027;-79
2023/09/01 02:20:24;;;;;;;28.02;15.45;;;15.60;99.90;;;;;;5075767;28;20027;-78
2023/09/01 02:22:50;;;;;;;42.67;19.80;;;15.60;99.90;;;;;;5075501;28;20067;-78
2023/09/01 02:25:16;;;;;;;44.35;21.58;;;15.60;99.90;;;;;;5094157;28;20028;-79
2023/09/01 02:27:42;;;;;;;30.42;16.00;;;15.60;99.90;;;;;;5094574;28;20023;-79
2023/09/01 02:30:09;;;;;;;40.80;19.40;;;15.60;99.90;;;;;;5093793;28;20362;-79
2023/09/01 02:32:36;;;;;;;45.92;20.45;;;15.60;99.90;;;;;;5094307;28;20046;-79
2023/09/01 02:35:05;;;;;;;40.83;19.65;;;15.60;99.90;;;;;;5092812;28;20103;-78
2023/09/01 02:37:32;;;;;;;36.95;18.38;;;15.50;99.90;;;;;;5075396;28;20426;-78
2023/09/01 02:39:58;;;;;;;38.92;18.42;;;15.50;99.90;;;;;;5075062;28;20077;-78
2023/09/01 02:42:24;;;;;;;55.83;22.27;;;15.50;99.90;;;;;;5075668;28;20206;-79
2023/09/01 02:44:49;;;;;;;36.85;17.65;;;15.50;99.90;;;;;;5092772;28;20221;-79
2023/09/01 02:47:16;;;;;;;55.65;22.85;;;15.50;99.90;;;;;;5093741;28;20024;-78
2023/09/01 02:49:42;;;;;;;54.53;22.73;;;15.50;99.90;;;;;;5093166;28;20051;-78
2023/09/01 02:52:08;;;;;;;46.47;19.85;;;15.40;99.90;;;;;;5092386;28;20378;-78
2023/09/01 02:54:34;;;;;;;38.80;18.38;;;15.50;99.90;;;;;;5092592;28;20043;-78
2023/09/01 02:56:59;;;;;;;42.33;18.20;;;15.40;99.90;;;;;;5092647;28;20024;-78
2023/09/01 02:59:25;;;;;;;33.03;15.95;;;15.40;99.90;;;;;;5091655;28;20445;-78
2023/09/01 03:01:51;;;;;;;39.63;18.25;;;15.50;99.90;;;;;;5092180;28;20028;-79
2023/09/01 03:04:17;;;;;;;45.53;20.42;;;15.50;99.90;;;;;;5093426;28;20095;-77
2023/09/01 03:06:43;;;;;;;42.10;17.95;;;15.50;99.90;;;;;;5092918;28;20028;-78
2023/09/01 03:09:10;;;;;;;37.60;16.38;;;15.40;99.90;;;;;;5092011;28;20039;-77
2023/09/01 03:11:36;;;;;;;53.72;20.90;;;15.40;99.90;;;;;;5092473;28;20500;-78
2023/09/01 03:14:02;;;;;;;41.60;18.83;;;15.40;99.90;;;;;;5092188;28;20028;-78
2023/09/01 03:16:30;;;;;;;43.00;17.65;;;15.40;99.90;;;;;;5092561;28;20032;-78
2023/09/01 03:18:59;;;;;;;44.28;18.67;;;15.40;99.90;;;;;;5092400;28;20034;-78
2023/09/01 03:21:30;;;;;;;37.85;16.77;;;15.40;99.90;;;;;;5092365;28;20028;-78
2023/09/01 03:23:57;;;;;;;41.47;18.23;;;15.40;99.90;;;;;;5092145;28;20074;-78
2023/09/01 03:26:23;;;;;;;40.90;17.23;;;15.40;99.90;;;;;;5092175;28;20034;-78
2023/09/01 03:28:50;;;;;;;42.13;18.20;;;15.40;99.90;;;;;;5092316;28;20092;-78
2023/09/01 03:31:15;;;;;;;42.47;18.17;;;15.40;99.90;;;;;;5092317;28;20071;-78
2023/09/01 03:33:42;;;;;;;34.47;16.48;;;15.40;99.90;;;;;;5092420;28;20078;-78
2023/09/01 03:36:08;;;;;;;49.42;20.40;;;15.40;99.90;;;;;;5091671;28;20046;-78
2023/09/01 03:38:37;;;;;;;41.65;19.67;;;15.50;99.90;;;;;;5092598;28;20376;-78
2023/09/01 03:41:04;;;;;;;48.92;20.10;;;15.40;99.90;;;;;;5073361;28;20385;-78
2023/09/01 03:43:31;;;;;;;50.83;20.90;;;15.40;99.90;;;;;;5092311;28;20051;-78
2023/09/01 03:45:57;;;;;;;39.58;16.10;;;15.40;99.90;;;;;;5091487;28;20047;-78
2023/09/01 03:48:24;;;;;;;37.15;17.67;;;15.40;99.90;;;;;;5092331;28;20024;-78
2023/09/01 03:51:09;;;;;;;53.25;22.63;;;15.40;99.90;;;;;;5091633;28;20024;-79
2023/09/01 03:53:36;;;;;;;49.72;21.83;;;15.40;99.90;;;;;;5092270;28;20477;-78
2023/09/01 03:56:16;;;;;;;43.05;19.38;;;15.40;99.90;;;;;;5091587;28;20495;-79
2023/09/01 03:58:42;;;;;;;46.30;20.75;;;15.40;99.90;;;;;;5092036;28;20024;-79
2023/09/01 04:01:09;;;;;;;38.20;18.17;;;15.40;99.90;;;;;;5091097;28;20465;-78
2023/09/01 04:03:35;;;;;;;45.72;20.65;;;15.40;99.90;;;;;;5092014;28;20020;-78
2023/09/01 04:06:01;;;;;;;30.23;16.95;;;15.40;99.90;;;;;;5091450;28;20029;-78
2023/09/01 04:08:27;;;;;;;31.75;16.77;;;15.40;99.90;;;;;;5091854;28;20024;-79
2023/09/01 04:10:52;;;;;;;30.52;15.50;;;15.40;99.90;;;;;;5091274;28;20028;-79
2023/09/01 04:13:18;;;;;;;32.05;16.15;;;15.40;99.90;;;;;;5091764;28;20040;-79
2023/09/01 04:15:45;;;;;;;39.50;17.00;;;15.50;99.90;;;;;;5091679;28;20030;-77
2023/09/01 04:18:11;;;;;;;34.42;17.20;;;15.40;99.90;;;;;;5091504;28;20024;-78
2023/09/01 04:20:36;;;;;;;28.13;14.30;;;15.40;99.90;;;;;;5091948;28;20481;-78
2023/09/01 04:23:02;;;;;;;28.60;14.43;;;15.40;99.90;;;;;;5073072;28;20039;-78
2023/09/01 04:25:28;;;;;;;24.33;13.65;;;15.40;99.90;;;;;;5091720;28;20106;-78
2023/09/01 04:27:53;;;;;;;26.52;13.85;;;15.40;99.90;;;;;;5091111;28;20035;-78
2023/09/01 04:30:19;;;;;;;25.73;13.60;;;15.40;99.90;;;;;;5091641;28;20034;-78
2023/09/01 04:32:46;;;;;;;28.77;15.30;;;15.40;99.90;;;;;;5091296;28;20035;-78
2023/09/01 04:35:12;;;;;;;25.20;13.80;;;15.40;99.90;;;;;;5072983;28;20062;-79
2023/09/01 04:37:38;;;;;;;28.08;13.88;;;15.40;99.90;;;;;;5091714;28;20350;-79
2023/09/01 04:40:06;;;;;;;26.83;14.13;;;15.40;99.90;;;;;;5090644;28;20035;-78
2023/09/01 04:42:33;;;;;;;25.92;13.20;;;15.40;99.90;;;;;;5091250;28;20099;-78
2023/09/01 04:44:58;;;;;;;19.67;11.40;;;15.40;99.90;;;;;;5090937;28;20055;-78
2023/09/01 04:47:24;;;;;;;19.15;10.85;;;15.40;99.90;;;;;;5091467;28;20028;-79
2023/09/01 04:49:51;;;;;;;20.17;11.32;;;15.40;99.90;;;;;;5091498;28;20024;-79
2023/09/01 04:52:16;;;;;;;23.13;12.95;;;15.40;99.90;;;;;;5090723;28;20469;-79
2023/09/01 04:54:42;;;;;;;17.48;11.18;;;15.40;99.90;;;;;;5091745;28;20100;-78
2023/09/01 04:57:08;;;;;;;27.80;14.20;;;15.40;99.90;;;;;;5090750;28;20028;-79
2023/09/01 04:59:34;;;;;;;22.02;11.75;;;15.30;99.90;;;;;;5090681;28;20111;-77
2023/09/01 05:02:00;;;;;;;26.45;12.65;;;15.40;99.90;;;;;;5090031;28;20502;-78
2023/09/01 05:04:26;;;;;;;19.83;10.77;;;15.40;99.90;;;;;;5090936;28;20444;-78
2023/09/01 05:06:52;;;;;;;26.95;13.20;;;15.30;99.90;;;;;;5090519;28;20389;-78
2023/09/01 05:09:19;;;;;;;21.05;12.43;;;15.40;99.90;;;;;;5090230;28;20027;-78
2023/09/01 05:11:44;;;;;;;27.27;13.70;;;15.40;99.90;;;;;;5090858;28;20078;-78
2023/09/01 05:14:10;;;;;;;20.85;12.02;;;15.40;99.90;;;;;;5090148;28;20020;-78
2023/09/01 05:16:36;;;;;;;27.45;13.57;;;15.30;99.90;;;;;;5091053;28;20024;-78
2023/09/01 05:19:02;;;;;;;18.92;11.88;;;15.40;99.90;;;;;;5090300;28;20134;-78
2023/09/01 05:21:28;;;;;;;23.00;11.60;;;15.40;99.90;;;;;;5091525;28;20485;-79
2023/09/01 05:23:53;;;;;;;26.10;13.32;;;15.30;99.90;;;;;;5095584;28;20156;-78
2023/09/01 05:26:19;;;;;;;20.25;11.35;;;15.40;99.90;;;;;;5076012;28;20028;-78
2023/09/01 05:28:45;;;;;;;26.42;12.57;;;15.30;99.90;;;;;;5095132;28;20031;-79
2023/09/01 05:31:11;;;;;;;22.63;10.98;;;15.40;99.90;;;;;;5094668;28;20025;-79
2023/09/01 05:33:36;;;;;;;24.80;11.68;;;15.30;99.90;;;;;;5095204;28;20051;-79
2023/09/01 05:36:02;;;;;;;15.52;9.55;;;15.20;99.90;;;;;;5094726;28;20036;-79
2023/09/01 05:38:28;;;;;;;24.33;11.35;;;15.30;99.90;;;;;;5094941;28;20028;-79
2023/09/01 05:41:01;;;;;;;16.70;10.27;;;15.30;99.90;;;;;;5095141;28;20032;-78
2023/09/01 05:43:28;;;;;;;18.15;10.98;;;15.30;99.90;;;;;;5094834;28;20032;-78
2023/09/01 05:45:54;;;;;;;21.00;10.65;;;15.30;99.90;;;;;;5094163;28;20060;-77
2023/09/01 05:48:20;;;;;;;21.25;10.30;;;15.30;99.90;;;;;;5093884;28;20039;-79
2023/09/01 05:50:46;;;;;;;22.25;10.45;;;15.30;99.90;;;;;;5094274;28;20035;-77
2023/09/01 05:53:11;;;;;;;22.40;10.07;;;15.30;99.90;;;;;;5093415;28;20121;-79
2023/09/01 05:55:37;;;;;;;18.92;9.10;;;15.20;99.90;;;;;;5094324;28;20101;-78
2023/09/01 05:58:03;;;;;;;17.25;9.25;;;15.30;99.90;;;;;;5093471;28;20358;-78
2023/09/01 06:00:29;;;;;;;19.48;9.55;;;15.20;99.90;;;;;;5076296;28;20028;-78
2023/09/01 06:02:56;;;;;;;14.45;8.38;;;15.20;99.90;;;;;;5093633;28;20035;-79
2023/09/01 06:05:22;;;;;;;14.63;8.90;;;15.20;99.90;;;;;;5093479;28;20056;-78
2023/09/01 06:07:48;;;;;;;15.13;8.20;;;15.30;99.90;;;;;;5093942;28;20059;-78
2023/09/01 06:10:15;;;;;;;16.20;8.02;;;15.30;99.90;;;;;;5093269;28;20465;-78
2023/09/01 06:12:41;;;;;;;13.82;8.80;;;15.30;99.90;;;;;;5093674;28;20040;-78
2023/09/01 06:15:07;;;;;;;17.55;7.85;;;15.30;99.90;;;;;;5093322;28;20420;-78
2023/09/01 06:17:33;;;;;;;15.98;8.73;;;15.40;99.90;;;;;;5075176;28;20172;-78
2023/09/01 06:19:59;;;;;;;11.95;7.35;;;15.40;99.90;;;;;;5093618;28;20110;-79
2023/09/01 06:22:25;;;;;;;11.32;6.18;;;15.40;99.90;;;;;;5093109;28;20123;-78
2023/09/01 06:24:51;;;;;;;9.68;5.50;;;15.40;99.90;;;;;;5074908;28;20353;-79
2023/09/01 06:27:16;;;;;;;13.82;7.78;;;15.40;99.90;;;;;;5092709;28;20028;-79
2023/09/01 06:29:42;;;;;;;16.83;8.95;;;15.50;99.90;;;;;;5093274;28;20026;-78
2023/09/01 06:32:11;;;;;;;22.63;11.05;;;15.40;99.90;;;;;;5092925;28;20039;-79
2023/09/01 06:34:38;;;;;;;11.18;7.53;;;15.40;99.90;;;;;;5073848;28;20555;-78
2023/09/01 06:37:03;;;;;;;12.55;7.38;;;15.50;99.90;;;;;;5093125;28;20035;-78
2023/09/01 06:39:29;;;;;;;12.30;7.03;;;15.50;99.90;;;;;;5093369;28;20032;-78
2023/09/01 06:41:55;;;;;;;12.95;5.82;;;15.50;99.90;;;;;;5093094;28;20031;-77
2023/09/01 06:44:21;;;;;;;8.50;6.30;;;15.50;99.90;;;;;;5092445;28;20595;-78
2023/09/01 06:46:47;;;;;;;18.98;6.70;;;15.50;99.90;;;;;;5093638;28;20118;-78
2023/09/01 06:49:12;;;;;;;11.57;6.45;;;15.50;99.90;;;;;;5092441;28;20104;-77
2023/09/01 06:51:38;;;;;;;12.50;6.22;;;15.50;99.90;;;;;;5092801;28;20032;-78
2023/09/01 06:54:04;;;;;;;8.45;5.03;;;15.50;99.90;;;;;;5092265;28;20062;-78
2023/09/01 06:56:30;;;;;;;6.68;4.82;;;15.50;99.90;;;;;;5092316;28;20020;-78
2023/09/01 06:58:55;;;;;;;13.07;6.07;;;15.60;99.90;;;;;;5092861;28;20020;-78
2023/09/01 07:01:21;;;;;;;9.65;5.15;;;15.60;99.90;;;;;;5092560;28;20035;-78
2023/09/01 07:03:47;;;;;;;10.32;5.65;;;15.60;99.90;;;;;;5092936;28;20039;-79
2023/09/01 07:06:13;;;;;;;10.18;5.43;;;15.70;99.90;;;;;;5092837;28;20096;-78
2023/09/01 07:08:39;;;;;;;7.32;5.03;;;15.70;99.90;;;;;;5093683;28;20097;-78
2023/09/01 07:11:09;;;;;;;10.23;5.47;;;15.80;99.90;;;;;;5093043;28;20174;-78
2023/09/01 07:13:35;;;;;;;9.93;5.28;;;15.80;99.90;;;;;;5093733;28;20028;-79
2023/09/01 07:16:03;;;;;;;8.70;4.72;;;15.90;99.90;;;;;;5092680;28;20028;-79
2023/09/01 07:18:29;;;;;;;9.25;4.90;;;15.90;99.90;;;;;;5093888;28;20031;-79
2023/09/01 07:20:59;;;;;;;8.65;4.95;;;16.00;99.90;;;;;;5092879;28;20024;-79
2023/09/01 07:23:26;;;;;;;8.55;4.63;;;16.10;99.90;;;;;;5073609;28;20035;-79
2023/09/01 07:25:55;;;;;;;7.88;4.68;;;16.00;99.90;;;;;;5089560;28;20121;-79
2023/09/01 07:28:21;;;;;;;8.45;4.50;;;16.00;99.90;;;;;;5071158;28;20033;-79
2023/09/01 07:30:47;;;;;;;6.90;4.40;;;16.10;99.90;;;;;;5072831;28;20027;-78
2023/09/01 07:33:13;;;;;;;11.60;6.05;;;16.10;99.90;;;;;;5073433;28;20059;-78
2023/09/01 07:35:43;;;;;;;13.00;5.72;;;16.10;99.90;;;;;;5091699;28;20461;-77
2023/09/01 07:38:09;;;;;;;9.75;4.90;;;16.10;99.90;;;;;;5091860;28;20023;-77
2023/09/01 07:40:35;;;;;;;8.23;5.05;;;16.10;99.90;;;;;;5091943;28;20457;-77
2023/09/01 07:43:01;;;;;;;11.07;5.93;;;16.20;99.90;;;;;;5092581;28;20112;-78
2023/09/01 07:45:27;;;;;;;10.23;5.05;;;16.30;99.90;;;;;;5073583;28;20056;-79
2023/09/01 07:47:53;;;;;;;9.85;5.45;;;16.30;99.90;;;;;;5072224;28;20029;-79
2023/09/01 07:50:19;;;;;;;10.13;5.97;;;16.40;99.90;;;;;;5086879;28;20021;-78
2023/09/01 07:52:45;;;;;;;9.18;6.03;;;16.40;99.90;;;;;;5071510;28;20032;-78
2023/09/01 07:55:11;;;;;;;7.55;4.93;;;16.40;99.90;;;;;;5071639;28;20413;-78
2023/09/01 07:57:36;;;;;;;5.00;4.28;;;16.50;99.90;;;;;;5070511;28;20056;-79
2023/09/01 08:00:07;;;;;;;8.68;5.43;;;16.50;99.90;;;;;;5071182;28;20032;-79
2023/09/01 08:02:33;;;;;;;6.90;5.30;;;16.60;99.90;;;;;;5071779;28;20125;-79
2023/09/01 08:04:59;;;;;;;9.88;5.90;;;16.60;99.90;;;;;;5071258;28;20032;-79
2023/09/01 08:07:25;;;;;;;9.93;5.82;;;16.60;99.90;;;;;;5070741;28;20096;-79
2023/09/01 08:09:51;;;;;;;9.50;5.35;;;16.70;99.90;;;;;;5052993;28;20037;-79
2023/09/01 08:12:16;;;;;;;8.52;5.25;;;16.80;99.90;;;;;;5070771;28;20182;-79
2023/09/01 08:14:42;;;;;;;7.82;5.63;;;16.80;99.90;;;;;;5070804;28;20032;-78
2023/09/01 08:17:08;;;;;;;7.80;5.05;;;16.80;99.90;;;;;;5070826;28;20028;-79
2023/09/01 08:19:33;;;;;;;8.50;4.93;;;16.70;99.90;;;;;;5070986;28;20052;-78
2023/09/01 08:22:01;;;;;;;7.45;5.10;;;16.70;99.90;;;;;;5070829;28;20064;-79
2023/09/01 08:24:27;;;;;;;5.50;4.22;;;16.60;99.90;;;;;;5073033;28;20059;-79
2023/09/01 08:26:53;;;;;;;5.82;4.75;;;16.60;99.90;;;;;;5090215;28;20411;-79
2023/09/01 08:29:18;;;;;;;6.68;4.95;;;16.70;99.90;;;;;;5090420;28;20481;-78
2023/09/01 08:31:44;;;;;;;6.72;4.80;;;16.70;99.90;;;;;;5091021;28;20097;-79
2023/09/01 08:34:10;;;;;;;7.47;5.20;;;16.70;99.90;;;;;;5088553;28;20354;-79
2023/09/01 08:36:37;;;;;;;7.15;4.50;;;16.70;99.90;;;;;;5090976;28;20032;-79
2023/09/01 08:39:04;;;;;;;8.35;4.88;;;16.80;99.90;;;;;;5091345;28;20055;-79
2023/09/01 08:41:29;;;;;;;7.75;5.38;;;16.80;99.90;;;;;;5072072;28;20036;-79
2023/09/01 08:44:01;;;;;;;7.97;5.68;;;16.90;99.90;;;;;;5089073;28;20030;-78
2023/09/01 08:46:29;;;;;;;5.57;4.35;;;17.10;99.90;;;;;;5090573;28;20384;-78
2023/09/01 08:48:55;;;;;;;8.98;5.72;;;17.40;99.90;;;;;;5072035;28;20438;-78
2023/09/01 08:51:22;;;;;;;10.65;5.57;;;17.50;99.90;;;;;;5090453;28;20107;-78
2023/09/01 08:53:49;;;;;;;8.32;6.30;;;17.70;99.90;;;;;;5072698;28;20028;-78
2023/09/01 08:56:15;;;;;;;8.25;5.05;;;17.80;99.90;;;;;;5071437;28;20028;-79
2023/09/01 08:58:41;;;;;;;11.25;5.65;;;17.80;99.90;;;;;;5088963;28;20028;-79
2023/09/01 09:01:07;;;;;;;5.28;4.10;;;18.10;99.90;;;;;;5090538;28;20028;-78
2023/09/01 09:03:33;;;;;;;7.03;4.72;;;18.20;99.90;;;;;;5090088;28;20031;-78
2023/09/01 09:06:02;;;;;;;5.93;4.80;;;18.20;99.90;;;;;;5088769;28;20358;-79
2023/09/01 09:08:29;;;;;;;4.85;4.45;;;18.30;99.90;;;;;;5089180;28;20099;-78
2023/09/01 09:10:56;;;;;;;4.53;3.53;;;18.30;99.90;;;;;;5087089;28;20422;-78
2023/09/01 09:13:28;;;;;;;4.95;4.47;;;18.30;99.90;;;;;;5089846;28;20064;-78
2023/09/01 09:16:14;;;;;;;4.50;4.10;;;18.30;99.90;;;;;;5090737;28;20024;-78
2023/09/01 09:18:44;;;;;;;4.57;4.10;;;18.30;99.90;;;;;;5090307;28;20512;-79
2023/09/01 09:21:23;;;;;;;3.60;2.90;;;18.30;99.90;;;;;;5090183;28;20029;-79
2023/09/01 09:23:49;;;;;;;3.90;3.42;;;18.20;99.90;;;;;;5090511;28;20080;-79
2023/09/01 09:26:15;;;;;;;4.95;3.38;;;18.30;99.90;;;;;;5089196;28;20334;-79
2023/09/01 09:28:41;;;;;;;3.63;3.30;;;18.30;99.90;;;;;;5090101;28;20082;-78
2023/09/01 09:31:06;;;;;;;3.90;3.58;;;18.30;99.90;;;;;;5103464;28;20046;-78
2023/09/01 09:33:34;;;;;;;5.03;3.20;;;18.30;99.90;;;;;;5089636;28;20064;-78
2023/09/01 09:36:00;;;;;;;5.50;3.60;;;18.30;99.90;;;;;;5090091;28;20052;-78
2023/09/01 09:38:42;;;;;;;2.38;2.17;;;18.30;99.90;;;;;;5089669;28;20055;-77
2023/09/01 09:41:08;;;;;;;3.25;2.85;;;18.30;99.90;;;;;;5090405;28;20028;-78
2023/09/01 09:43:48;;;;;;;2.80;2.50;;;18.30;99.90;;;;;;5089391;28;20036;-78
2023/09/01 09:46:16;;;;;;;2.10;1.90;;;18.20;99.90;;;;;;5089772;28;20101;-78
2023/09/01 09:48:42;;;;;;;4.35;2.97;;;18.20;99.90;;;;;;5090352;28;20391;-78
2023/09/01 09:51:10;;;;;;;4.55;3.10;;;18.20;99.90;;;;;;5090904;28;20025;-77
2023/09/01 09:53:37;;;;;;;2.63;2.42;;;18.10;99.90;;;;;;5089558;28;20024;-78
2023/09/01 09:56:30;;;;;;;6.72;3.50;;;18.10;99.90;;;;;;5089753;28;20467;-78
2023/09/01 09:59:02;;;;;;;3.40;2.53;;;18.10;99.90;;;;;;5081617;28;20070;-77
2023/09/01 10:01:32;;;;;;;2.20;2.00;;;18.20;99.90;;;;;;5089293;28;20024;-77
2023/09/01 10:03:58;;;;;;;2.47;2.00;;;18.30;99.90;;;;;;5107501;28;20028;-77
2023/09/01 10:06:24;;;;;;;3.55;2.03;;;18.40;99.90;;;;;;5091193;28;20038;-78
2023/09/01 10:08:51;;;;;;;3.75;2.42;;;18.60;99.90;;;;;;5093902;28;20023;-78
2023/09/01 10:11:18;;;;;;;4.15;2.10;;;18.60;99.90;;;;;;5094337;28;20024;-78
2023/09/01 10:13:45;;;;;;;3.63;2.20;;;18.70;99.90;;;;;;5094433;28;20028;-79
2023/09/01 10:16:13;;;;;;;2.88;2.40;;;18.60;99.90;;;;;;5093657;28;20054;-79
2023/09/01 10:18:43;;;;;;;3.72;1.80;;;18.60;99.90;;;;;;5092879;28;20027;-78
2023/09/01 10:21:09;;;;;;;2.97;2.03;;;18.50;99.90;;;;;;5093240;28;20035;-78
2023/09/01 10:23:34;;;;;;;3.45;1.85;;;18.50;99.90;;;;;;5074280;28;20193;-78
2023/09/01 10:26:24;;;;;;;1.73;1.60;;;18.60;99.90;;;;;;5109220;28;20495;-78
2023/09/01 10:29:04;;;;;;;2.05;1.67;;;18.80;99.90;;;;;;5093256;28;20024;-79
2023/09/01 10:31:31;;;;;;;3.60;1.80;;;18.90;99.90;;;;;;5091988;28;20391;-78
2023/09/01 10:34:03;;;;;;;1.92;1.80;;;19.10;99.90;;;;;;5093105;28;20096;-78
2023/09/01 10:36:29;;;;;;;2.53;1.60;;;19.30;99.90;;;;;;5092815;28;20025;-78
2023/09/01 10:39:13;;;;;;;1.42;1.33;;;19.30;99.90;;;;;;5093383;28;20024;-78
2023/09/01 10:41:58;;;;;;;2.03;1.77;;;19.30;99.90;;;;;;5092722;28;20079;-79
2023/09/01 10:44:39;;;;;;;1.90;1.65;;;19.30;99.90;;;;;;5092837;28;20139;-77
2023/09/01 10:47:33;;;;;;;3.67;2.00;;;19.30;99.90;;;;;;5093275;28;20082;-78
2023/09/01 10:50:03;;;;;;;1.98;1.77;;;19.40;99.90;;;;;;5093333;28;20107;-78
2023/09/01 10:52:31;;;;;;;1.75;1.60;;;19.40;99.90;;;;;;5092485;28;20119;-78
2023/09/01 10:55:00;;;;;;;2.15;1.55;;;19.50;99.90;;;;;;5074608;28;20028;-78
2023/09/01 10:57:46;;;;;;;2.92;1.80;;;19.50;99.90;;;;;;5092458;28;20112;-78
2023/09/01 11:00:34;;;;;;;5.22;1.85;;;19.40;99.90;;;;;;5093006;28;20027;-78
2023/09/01 11:03:39;;;;;;;2.38;1.70;;;19.40;99.90;;;;;;5092620;28;20057;-79
2023/09/01 11:06:06;;;;;;;2.58;1.50;;;19.30;99.90;;;;;;5092615;28;20088;-79
2023/09/01 11:08:32;;;;;;;1.75;1.30;;;19.20;99.90;;;;;;5091873;28;20458;-79
2023/09/01 11:11:07;;;;;;;3.75;1.40;;;19.20;99.90;;;;;;5092711;28;20164;-79
2023/09/01 11:13:33;;;;;;;9.68;1.70;;;19.30;99.90;;;;;;5092303;28;20044;-79
2023/09/01 11:16:07;;;;;;;1.35;1.25;;;19.30;99.90;;;;;;5092497;28;20023;-79
2023/09/01 11:18:33;;;;;;;2.70;1.20;;;19.30;99.90;;;;;;5091587;28;20020;-79
2023/09/01 11:21:00;;;;;;;1.30;0.80;;;19.20;99.90;;;;;;5091948;28;20076;-79
2023/09/01 11:23:31;;;;;;;1.23;1.13;;;19.30;99.90;;;;;;5091394;28;20032;-79
2023/09/01 11:25:57;;;;;;;2.50;1.30;;;19.40;99.90;;;;;;5092251;28;20038;-79
2023/09/01 11:28:28;;;;;;;2.20;1.10;;;19.60;99.90;;;;;;5091818;28;20165;-79
2023/09/01 11:30:58;;;;;;;2.75;1.38;;;19.70;99.90;;;;;;5091888;28;20020;-79
2023/09/01 11:33:25;;;;;;;1.48;1.35;;;19.70;99.90;;;;;;5090724;28;20032;-79
2023/09/01 11:36:04;;;;;;;2.22;1.38;;;19.80;99.90;;;;;;5092056;28;20032;-78
2023/09/01 11:38:30;;;;;;;1.20;1.10;;;19.90;99.90;;;;;;5091685;28;20024;-79
2023/09/01 11:40:57;;;;;;;1.48;0.88;;;20.10;99.90;;;;;;5091732;28;20039;-78
2023/09/01 11:43:24;;;;;;;1.67;1.10;;;20.20;99.90;;;;;;5091443;28;20099;-77
2023/09/01 11:45:50;;;;;;;1.40;0.93;;;20.40;99.90;;;;;;5092297;28;20123;-79
2023/09/01 11:48:26;;;;;;;1.02;1.00;;;20.50;99.90;;;;;;5091742;28;20496;-78
2023/09/01 11:50:55;;;;;;;2.67;1.05;;;20.50;99.90;;;;;;5092302;28;20103;-79
2023/09/01 11:53:24;;;;;;;1.23;1.08;;;20.40;99.90;;;;;;5090986;28;20032;-80
2023/09/01 11:55:50;;;;;;;0.82;0.52;;;20.40;99.90;;;;;;5091572;28;20059;-79
2023/09/01 11:58:16;;;;;;;0.63;0.50;;;20.20;99.90;;;;;;5091358;28;20440;-78
2023/09/01 12:00:42;;;;;;;1.80;0.90;;;20.40;99.90;;;;;;5091018;28;20103;-79
2023/09/01 12:03:08;;;;;;;1.80;1.02;;;20.40;99.90;;;;;;5091390;28;20066;-79
2023/09/01 12:05:40;;;;;;;2.35;0.90;;;20.20;99.90;;;;;;5090894;28;20484;-79
2023/09/01 12:08:08;;;;;;;1.95;1.00;;;19.90;99.90;;;;;;5091652;28;20381;-79
2023/09/01 12:10:34;;;;;;;1.92;1.40;;;19.70;99.90;;;;;;5090995;28;20028;-80
2023/09/01 12:13:09;;;;;;;2.47;1.48;;;19.50;99.90;;;;;;5091297;28;20107;-79
2023/09/01 12:15:56;;;;;;;2.53;1.13;;;19.40;99.90;;;;;;5090793;28;20160;-80
2023/09/01 12:18:41;;;;;;;1.10;1.00;;;19.40;99.90;;;;;;5107865;28;20116;-80
2023/09/01 12:21:09;;;;;;;2.42;1.02;;;19.50;99.90;;;;;;5092209;28;20442;-79
2023/09/01 12:23:38;;;;;;;1.10;1.00;;;19.60;99.90;;;;;;5092205;28;20040;-79
2023/09/01 12:26:04;;;;;;;2.40;1.20;;;19.60;99.90;;;;;;5093035;28;20136;-78
2023/09/01 12:28:33;;;;;;;1.30;1.10;;;19.70;99.90;;;;;;5092696;28;20066;-79
2023/09/01 12:31:00;;;;;;;2.47;1.20;;;19.70;99.90;;;;;;5093313;28;20094;-79
2023/09/01 12:33:26;;;;;;;3.67;1.50;;;19.70;99.90;;;;;;5092723;28;20028;-79
2023/09/01 12:35:52;;;;;;;1.55;0.93;;;19.70;99.90;;;;;;5093016;28;20031;-78
2023/09/01 12:38:19;;;;;;;1.85;1.30;;;19.70;99.90;;;;;;5091771;28;20429;-79
2023/09/01 12:40:44;;;;;;;1.67;1.20;;;19.70;99.90;;;;;;5090508;28;20086;-79